Terminal Aerodrome Forecast
Issued by NWS

Home | Current Version | Previous Version | Text Only | Print | Product List | Glossary On
Versions: 1 2 3 4 5 6 7 8 9 10 11 12 13
000
FTUS45 KLKN 252323
TAFELY
TAF
KELY 252323Z 2600/2624 24010KT P6SM VCTS SCT060CB BKN100
     FM260300 18010KT P6SM VCSH BKN070
     FM261200 17006KT P6SM SCT070 SCT250
     FM261900 18008KT P6SM VCTS SCT070CB BKN100=

USA.gov is the U.S. government's official web portal to all federal, state and local government web resources and services.